cubair logo

For once you have tasted flight you will walk the earth with your eyes turned skywards,
for there you have been and there you will long to return.


"Leonardo da Vinci"

Cub Air Flight was founded in 2006, by Steve and Sharon Krog. Cub Air Flight school uses vintage Piper J3 Cub aircraft to instruct in, following a philosophy that “old school is still cool.” Cub Air Flight believes that these fine classic airplanes make better pilots by requiring more attention and flying skill than newer airplanes. We at Cub Air Flight hold that flying a vintage airplane is as much an art as it is a science.

The Piper J3 Cub is revered among aviators as a truly classic and iconic airplane. It has served as a trainer to more pilots than almost any airplane, earning a reputation as easy to fly but yet challenging enough to force students to continually better themselves. Cub Air uses two J3 Cubs, restored and maintained with the same attention to detail as a lovingly restored classic car. Cub Air also uses a Piper Cherokee for training requiring an aircraft with more advanced instruments.

PrintEmail

Come fly with us and feel the freedom of
flying, the way it's supposed to be!


"Old School Is Still Cool!"

Our Staff

Steve Krog

Sharon Krog

Jamie Weber

Luke Lachendro

Chris Hibben

Our Instructors

Steve Krog

John Palese

 

Shop Our Store

shopping-cart-icon-515

Find Us Here!

Hartford Municipal

Airport (KHXF)

4200 Highway U

Hartford, WI 53027

Juneau Weather

[source: ADDS]
METAR
KUNU 190915Z AUTO 08008KT 10SM CLR 01/M05 A3040 RMK AO2 T00051046 =
TAF

Fond Du Lac Weather

[source: ADDS]
METAR
KFLD 190853Z AUTO 10009KT 10SM CLR 01/M04 A3040 RMK AO2 SLP302 T00111039 51005 =
TAF

West Bend Weather

[source: ADDS]
METAR
KETB 190910Z AUTO 08006KT 10SM CLR 00/M03 A3040 RMK AO2 =
TAF

Oshkosh Weather

[source: ADDS]
METAR
KOSH 190853Z 09008KT 10SM CLR 01/M03 A3041 RMK AO2 SLP305 T00111033 53006 =
TAF